createdAt,value
2019-06-01T03:28:28.529Z,17.90
2019-06-01T03:30:57.768Z,18.50
2019-06-01T03:33:27.178Z,17.40
2019-06-01T03:35:57.163Z,16.10
2019-06-01T03:38:26.212Z,15.70
2019-06-01T03:40:55.882Z,16.00
2019-06-01T03:43:26.630Z,15.70
2019-06-01T03:45:56.007Z,15.00
2019-06-01T03:48:25.220Z,14.50
2019-06-01T03:58:22.340Z,13.80
2019-06-01T04:15:46.394Z,12.00
2019-06-01T05:15:41.559Z,23.00
2019-06-01T05:18:17.932Z,23.80
2019-06-01T05:20:45.633Z,25.30
2019-06-01T05:23:14.927Z,26.60
2019-06-01T05:25:45.194Z,27.10
2019-06-01T05:28:15.315Z,27.60
2019-06-01T05:30:44.808Z,28.00
2019-06-01T05:33:31.125Z,27.60
2019-06-01T05:35:46.284Z,26.90
2019-06-01T05:38:16.528Z,27.30
2019-06-01T05:40:45.786Z,27.30
2019-06-01T05:43:18.935Z,27.80
2019-06-01T05:45:46.627Z,28.40
2019-06-01T05:50:46.380Z,28.30
2019-06-01T05:53:19.877Z,28.20
2019-06-01T05:58:19.484Z,28.90
2019-06-01T06:00:49.335Z,29.10
2019-06-01T06:03:26.595Z,28.90
2019-06-01T06:05:52.174Z,28.70
2019-06-01T06:08:22.162Z,28.50
2019-06-01T06:10:51.665Z,28.50
2019-06-01T06:13:21.630Z,28.50
2019-06-01T06:15:51.233Z,29.20
2019-06-01T06:18:21.750Z,29.70
2019-06-01T06:20:52.539Z,29.30
2019-06-01T06:23:22.738Z,28.70
2019-06-01T06:25:53.139Z,29.00
2019-06-01T06:28:23.239Z,28.10
2019-06-01T06:30:53.476Z,27.90
2019-06-01T06:33:23.672Z,28.10
2019-06-01T06:35:53.122Z,27.50
2019-06-01T06:38:22.425Z,27.80
2019-06-01T06:40:51.722Z,28.20
2019-06-01T06:43:29.706Z,28.30
2019-06-01T06:45:51.818Z,27.80
2019-06-01T06:48:21.363Z,27.50
2019-06-01T06:50:50.676Z,28.00
2019-06-01T06:53:29.827Z,27.60
2019-06-01T06:55:54.067Z,27.60
2019-06-01T06:58:24.436Z,28.00
2019-06-01T07:00:53.850Z,27.50
2019-06-01T07:03:23.435Z,27.20
2019-06-01T07:05:52.805Z,27.10
2019-06-01T07:08:22.024Z,27.60
2019-06-01T07:10:51.373Z,27.90
2019-06-01T07:13:21.298Z,28.00
2019-06-01T07:15:54.852Z,27.60
2019-06-01T07:18:25.758Z,28.20
2019-06-01T07:20:55.442Z,28.40
2019-06-01T07:23:25.803Z,28.30
2019-06-01T07:25:55.429Z,28.20
2019-06-01T07:28:26.200Z,28.00
2019-06-01T07:31:03.803Z,28.10
2019-06-01T07:33:33.500Z,28.40
2019-06-01T07:36:02.737Z,28.70
2019-06-01T07:38:34.646Z,29.40
2019-06-01T07:41:08.807Z,30.00
2019-06-01T07:43:45.928Z,30.70
2019-06-01T07:46:16.232Z,31.00
2019-06-01T07:48:53.103Z,31.10
2019-06-01T07:51:29.759Z,31.40
2019-06-01T07:54:03.066Z,31.30
2019-06-01T07:56:36.174Z,32.00
2019-06-01T07:59:05.472Z,32.20
2019-06-01T08:01:34.705Z,32.20
2019-06-01T08:04:03.844Z,32.50
2019-06-01T08:06:33.036Z,31.70
2019-06-01T08:09:02.452Z,31.70
2019-06-01T08:11:34.934Z,31.90
2019-06-01T08:14:04.433Z,31.30
2019-06-01T08:16:36.330Z,31.30
2019-06-01T08:19:09.065Z,32.20
2019-06-01T08:21:41.811Z,31.90
2019-06-01T08:24:11.157Z,31.20
2019-06-01T08:26:40.433Z,30.60
2019-06-01T08:29:13.521Z,30.90
2019-06-01T08:31:42.622Z,31.10
2019-06-01T08:34:11.724Z,31.10
2019-06-01T08:36:40.805Z,30.50
2019-06-01T08:39:09.907Z,30.00
2019-06-01T08:41:38.995Z,29.70
2019-06-01T08:44:09.361Z,29.30
2019-06-01T08:46:39.437Z,29.50
2019-06-01T08:49:08.532Z,29.50
2019-06-01T08:51:37.735Z,28.80
2019-06-01T08:54:07.958Z,29.00
2019-06-01T08:56:37.048Z,28.90
2019-06-01T08:59:06.147Z,28.80
2019-06-01T09:01:35.167Z,29.00
2019-06-01T09:04:05.048Z,28.90
2019-06-01T09:06:35.233Z,27.90
2019-06-01T09:09:07.154Z,27.30
2019-06-01T09:11:36.223Z,26.60
2019-06-01T09:14:05.522Z,26.00
2019-06-01T09:16:35.939Z,25.40
2019-06-01T09:19:06.480Z,24.80
2019-06-01T09:21:39.241Z,24.20
2019-06-01T09:24:11.738Z,23.80
2019-06-01T09:26:40.833Z,23.40
2019-06-01T09:29:10.953Z,22.90
2019-06-01T09:31:41.900Z,22.80
2019-06-01T09:34:11.086Z,22.80
2019-06-01T09:36:40.184Z,22.70
2019-06-01T09:39:09.632Z,22.60
2019-06-01T09:41:41.336Z,22.60
2019-06-01T09:44:10.439Z,22.40
2019-06-01T09:46:39.531Z,22.30
2019-06-01T09:49:08.619Z,22.30
2019-06-01T09:51:38.743Z,22.30
2019-06-01T09:54:07.836Z,22.40
2019-06-01T09:56:38.232Z,22.50
2019-06-01T09:59:07.561Z,22.30
2019-06-01T10:01:38.860Z,22.30
2019-06-01T10:04:09.515Z,22.30
2019-06-01T10:06:38.753Z,22.60
2019-06-01T10:09:09.069Z,22.60
2019-06-01T10:11:38.563Z,22.60
2019-06-01T10:14:07.864Z,22.60
2019-06-01T10:16:37.059Z,22.70
2019-06-01T10:19:06.162Z,22.90
2019-06-01T10:21:36.135Z,23.00
2019-06-01T10:24:08.139Z,23.20
2019-06-01T10:26:37.645Z,23.30
2019-06-01T10:29:06.938Z,23.50
2019-06-01T10:31:39.708Z,23.70
2019-06-01T10:34:06.758Z,23.70
2019-06-01T10:36:37.960Z,23.70
2019-06-01T10:39:09.572Z,23.90
2019-06-01T10:41:39.634Z,23.80
2019-06-01T10:44:10.008Z,23.70
2019-06-01T10:46:40.177Z,23.80
2019-06-01T10:49:09.525Z,23.60
2019-06-01T10:51:38.620Z,23.60
2019-06-01T10:54:07.715Z,23.70
2019-06-01T10:56:36.914Z,23.80
2019-06-01T10:59:06.537Z,23.80
2019-06-01T11:01:37.847Z,23.80
2019-06-01T11:04:07.373Z,23.80
2019-06-01T11:06:46.462Z,23.80
2019-06-01T11:09:11.341Z,23.70
2019-06-01T11:11:41.145Z,23.20
2019-06-01T11:14:12.663Z,23.20
2019-06-01T11:16:43.310Z,23.10
2019-06-01T11:19:12.796Z,23.10
2019-06-01T11:21:41.892Z,23.20
2019-06-01T11:24:10.984Z,23.20
2019-06-01T11:26:41.924Z,23.30
2019-06-01T11:29:11.223Z,23.50
2019-06-01T11:31:42.570Z,23.70
2019-06-01T11:34:11.976Z,23.70
2019-06-01T11:37:01.873Z,23.50
2019-06-01T11:39:15.179Z,23.50
2019-06-01T11:41:44.801Z,23.30
2019-06-01T11:44:14.088Z,23.20
2019-06-01T11:46:46.458Z,23.20
2019-06-01T11:49:20.711Z,23.30
2019-06-01T11:51:54.823Z,23.50
2019-06-01T11:54:23.893Z,23.60
2019-06-01T11:56:53.179Z,23.70
2019-06-01T11:59:22.273Z,23.80
2019-06-01T12:01:51.393Z,23.70
2019-06-01T12:04:20.574Z,23.60
2019-06-01T12:06:52.118Z,23.70
2019-06-01T12:09:21.221Z,23.60
2019-06-01T12:11:50.313Z,23.60
2019-06-01T12:14:19.505Z,23.60
2019-06-01T12:16:50.960Z,23.40
2019-06-01T12:19:22.906Z,23.30
2019-06-01T12:21:52.068Z,23.10
2019-06-01T12:24:25.521Z,23.10
2019-06-01T12:26:51.943Z,22.90
2019-06-01T12:29:21.042Z,22.90
2019-06-01T12:31:50.144Z,23.00
2019-06-01T12:34:22.002Z,22.90
2019-06-01T12:36:51.110Z,23.00
2019-06-01T12:39:22.865Z,23.00
2019-06-01T12:41:51.948Z,22.80
2019-06-01T12:44:21.042Z,22.70
2019-06-01T12:46:50.130Z,22.70
2019-06-01T12:49:19.225Z,22.80
2019-06-01T12:51:48.934Z,22.80
2019-06-01T12:54:18.538Z,22.90
2019-06-01T12:56:49.309Z,22.90
2019-06-01T12:59:18.273Z,23.00
2019-06-01T13:01:47.404Z,23.00
2019-06-01T13:04:18.092Z,23.10
2019-06-01T13:06:51.160Z,23.10
2019-06-01T13:09:17.817Z,23.30
2019-06-01T13:11:49.368Z,23.40
2019-06-01T13:14:18.780Z,23.40
2019-06-01T13:17:01.272Z,23.60
2019-06-01T13:19:27.119Z,23.50
2019-06-01T13:21:56.195Z,23.30
2019-06-01T13:24:25.291Z,23.20
2019-06-01T13:26:57.073Z,23.20
2019-06-01T13:29:26.140Z,23.10
2019-06-01T13:31:55.268Z,23.10
2019-06-01T13:34:24.339Z,23.10
2019-06-01T13:36:53.527Z,23.20
2019-06-01T13:39:22.622Z,23.20
2019-06-01T13:41:51.825Z,23.20
2019-06-01T13:44:23.292Z,23.10
2019-06-01T13:46:52.364Z,22.80
2019-06-01T13:49:24.039Z,22.50
2019-06-01T13:51:54.695Z,22.50
2019-06-01T13:54:26.785Z,22.50
2019-06-01T13:56:56.805Z,22.30
2019-06-01T13:59:28.292Z,22.10
2019-06-01T14:02:01.269Z,21.90
2019-06-01T14:04:31.404Z,21.90
2019-06-01T14:07:03.119Z,21.80
2019-06-01T14:09:32.243Z,21.80
2019-06-01T14:12:01.351Z,21.70
2019-06-01T14:14:34.019Z,21.80
2019-06-01T14:17:03.066Z,21.70
2019-06-01T14:19:32.211Z,21.70
2019-06-01T14:22:03.550Z,21.80
2019-06-01T14:24:32.749Z,22.00
2019-06-01T14:27:01.863Z,22.20
2019-06-01T14:29:30.945Z,22.30
2019-06-01T14:32:00.035Z,22.30
2019-06-01T14:34:29.229Z,22.40
2019-06-01T14:37:00.990Z,22.50
2019-06-01T14:39:32.607Z,22.60
2019-06-01T14:42:04.000Z,22.60
2019-06-01T14:44:34.106Z,22.50
2019-06-01T14:47:05.943Z,22.70
2019-06-01T14:49:37.629Z,22.90
2019-06-01T14:52:06.922Z,22.90
2019-06-01T14:54:36.134Z,22.90
2019-06-01T14:57:05.454Z,23.00
2019-06-01T14:59:34.517Z,22.90
2019-06-01T15:02:03.616Z,22.70
2019-06-01T15:04:36.711Z,22.40
2019-06-01T15:07:07.009Z,22.00
2019-06-01T15:09:36.011Z,21.90
2019-06-01T15:12:06.760Z,21.90
2019-06-01T15:14:35.849Z,22.00
2019-06-01T15:17:05.054Z,22.30
2019-06-01T15:19:34.136Z,22.70
2019-06-01T15:22:03.485Z,22.90
2019-06-01T15:24:32.734Z,23.00
2019-06-01T15:27:03.026Z,23.00
2019-06-01T15:29:32.456Z,22.70
2019-06-01T15:32:02.290Z,22.40
2019-06-01T15:34:31.885Z,22.30
2019-06-01T15:37:01.857Z,22.10
2019-06-01T15:39:31.191Z,22.00
2019-06-01T15:42:01.351Z,22.00
2019-06-01T15:44:30.611Z,21.90
2019-06-01T15:46:59.882Z,21.80
2019-06-01T15:49:29.005Z,21.80
2019-06-01T15:51:58.108Z,21.80
2019-06-01T15:54:32.171Z,21.60
2019-06-01T15:57:02.585Z,21.50
2019-06-01T15:59:33.508Z,21.50
2019-06-01T16:02:03.434Z,21.40
2019-06-01T16:04:34.341Z,21.30
2019-06-01T16:07:03.513Z,21.30
2019-06-01T16:09:42.507Z,21.30
2019-06-01T16:12:03.763Z,21.20
2019-06-01T16:14:32.956Z,21.30
2019-06-01T16:17:02.907Z,21.40
2019-06-01T16:19:32.690Z,21.50
2019-06-01T16:22:02.615Z,21.50
2019-06-01T16:24:31.902Z,21.40
2019-06-01T16:27:00.994Z,21.40
2019-06-01T16:29:30.001Z,21.30
2019-06-01T16:31:59.079Z,21.20
2019-06-01T16:34:28.282Z,21.20
2019-06-01T16:36:57.379Z,21.20
2019-06-01T16:46:53.657Z,21.10
2019-06-01T17:16:54.480Z,20.70
2019-06-01T17:19:23.555Z,20.30
2019-06-01T17:21:52.650Z,20.30
2019-06-01T17:24:21.744Z,20.30
2019-06-01T17:26:52.288Z,20.30
2019-06-01T17:29:21.369Z,20.10
2019-06-01T17:46:59.926Z,20.10
2019-06-01T17:49:29.301Z,19.70
2019-06-01T17:51:59.402Z,19.70
2019-06-01T17:54:29.489Z,19.70
2019-06-01T17:57:00.950Z,19.80
2019-06-01T17:59:30.266Z,19.70
2019-06-01T18:04:28.050Z,19.60
2019-06-01T18:06:57.142Z,19.40
2019-06-01T18:09:29.749Z,19.30
2019-06-01T18:12:01.967Z,19.20
2019-06-01T18:14:31.198Z,19.10
2019-06-01T18:17:00.388Z,19.10
2019-06-01T18:19:30.501Z,19.10
2019-06-01T18:22:06.658Z,19.00
2019-06-01T18:24:30.226Z,18.90
2019-06-01T18:26:59.321Z,18.90
2019-06-01T18:29:28.414Z,18.80
2019-06-01T18:31:57.511Z,18.70
2019-06-01T18:34:26.815Z,18.60
2019-06-01T18:36:56.006Z,18.60
2019-06-01T18:39:26.043Z,18.50
2019-06-01T18:41:55.161Z,18.50
2019-06-01T18:44:25.866Z,18.50
2019-06-01T18:46:55.842Z,18.50
2019-06-01T18:49:24.901Z,18.50
2019-06-01T18:51:54.072Z,18.40
2019-06-01T18:54:23.159Z,18.40
2019-06-01T18:57:08.807Z,18.30
2019-06-01T18:59:23.830Z,18.20
2019-06-01T19:01:59.860Z,18.30
2019-06-01T19:04:29.897Z,18.20
2019-06-01T19:07:03.212Z,18.20
2019-06-01T19:09:35.538Z,18.10
2019-06-01T19:12:04.639Z,18.20
2019-06-01T19:14:33.727Z,18.10
2019-06-01T19:17:03.747Z,18.10
2019-06-01T19:19:36.535Z,18.00
2019-06-01T19:24:38.023Z,18.00
2019-06-01T19:27:10.756Z,17.90
2019-06-01T19:29:43.523Z,17.90
2019-06-01T19:32:12.957Z,17.80
2019-06-01T19:34:42.159Z,17.80
2019-06-01T19:37:11.254Z,17.80
2019-06-01T19:39:46.562Z,17.70
2019-06-01T19:42:15.714Z,17.70
2019-06-01T19:44:45.809Z,17.70
2019-06-01T19:47:15.950Z,17.60
2019-06-01T19:49:45.326Z,17.60
2019-06-01T21:39:27.614Z,17.60
2019-06-01T21:41:56.708Z,16.10
2019-06-01T21:44:25.847Z,15.90
2019-06-01T22:26:41.961Z,15.70
2019-06-01T22:29:11.080Z,14.80
2019-06-01T22:31:40.143Z,14.70
2019-06-01T22:34:09.235Z,14.60
